createdAt,value
2022-08-26T00:02:20.839Z,22.60
2022-08-26T00:05:09.905Z,22.50
2022-08-26T00:07:58.172Z,22.70
2022-08-26T00:10:47.361Z,22.60
2022-08-26T00:13:35.768Z,22.40
2022-08-26T00:16:24.423Z,22.30
2022-08-26T00:19:12.354Z,22.20
2022-08-26T00:22:00.743Z,22.20
2022-08-26T00:24:48.646Z,22.10
2022-08-26T00:27:37.839Z,22.00
2022-08-26T00:30:30.186Z,21.90
2022-08-26T00:33:19.661Z,21.80
2022-08-26T00:36:07.946Z,21.80
2022-08-26T00:39:08.355Z,21.80
2022-08-26T00:41:56.223Z,21.80
2022-08-26T00:44:45.898Z,21.80
2022-08-26T00:47:36.285Z,21.80
2022-08-26T00:50:27.136Z,21.70
2022-08-26T00:53:24.064Z,21.70
2022-08-26T00:56:16.381Z,21.70
2022-08-26T00:59:06.163Z,21.60
2022-08-26T01:01:55.505Z,21.50
2022-08-26T01:04:45.094Z,21.40
2022-08-26T01:07:34.686Z,21.30
2022-08-26T01:10:25.610Z,21.30
2022-08-26T01:13:13.998Z,21.20
2022-08-26T01:16:03.910Z,21.30
2022-08-26T01:18:53.767Z,21.20
2022-08-26T01:21:45.442Z,21.30
2022-08-26T01:24:35.398Z,21.30
2022-08-26T01:27:24.381Z,21.30
2022-08-26T01:30:12.896Z,21.30
2022-08-26T01:33:01.782Z,21.30
2022-08-26T01:35:49.812Z,21.30
2022-08-26T01:38:39.951Z,21.50
2022-08-26T01:41:29.387Z,21.40
2022-08-26T01:44:19.122Z,21.50
2022-08-26T01:47:07.819Z,21.50
2022-08-26T01:49:57.513Z,21.50
2022-08-26T01:52:48.091Z,21.40
2022-08-26T01:55:44.099Z,21.40
2022-08-26T01:58:35.783Z,21.40
2022-08-26T02:01:29.095Z,21.40
2022-08-26T02:04:21.227Z,21.40
2022-08-26T02:07:10.090Z,21.50
2022-08-26T02:09:57.920Z,21.50
2022-08-26T02:12:45.781Z,21.50
2022-08-26T02:15:35.084Z,21.40
2022-08-26T02:18:23.533Z,21.40
2022-08-26T02:21:12.726Z,21.40
2022-08-26T02:24:08.567Z,21.30
2022-08-26T02:26:57.378Z,21.20
2022-08-26T02:29:48.039Z,21.00
2022-08-26T02:32:40.312Z,20.90
2022-08-26T02:35:29.228Z,20.70
2022-08-26T02:38:17.961Z,20.60
2022-08-26T02:41:05.968Z,20.60
2022-08-26T02:43:56.088Z,20.60
2022-08-26T02:46:46.914Z,20.60
2022-08-26T02:49:37.546Z,20.50
2022-08-26T02:52:25.442Z,20.50
2022-08-26T02:55:13.450Z,20.50
2022-08-26T02:58:01.678Z,20.50
2022-08-26T03:00:53.406Z,20.50
2022-08-26T03:03:41.502Z,20.40
2022-08-26T03:06:30.973Z,20.40
2022-08-26T03:09:19.546Z,20.30
2022-08-26T03:12:07.634Z,20.30
2022-08-26T03:14:56.272Z,20.20
2022-08-26T03:17:44.490Z,20.20
2022-08-26T03:20:32.675Z,20.20
2022-08-26T03:23:21.922Z,20.30
2022-08-26T03:26:11.033Z,20.30
2022-08-26T03:29:16.693Z,20.30
2022-08-26T03:32:05.066Z,20.30
2022-08-26T03:34:52.944Z,20.30
2022-08-26T03:37:40.809Z,20.30
2022-08-26T03:40:30.376Z,20.30
2022-08-26T03:43:18.948Z,20.30
2022-08-26T03:46:07.098Z,20.30
2022-08-26T03:48:55.149Z,20.30
2022-08-26T03:51:42.986Z,20.20
2022-08-26T03:54:32.590Z,20.20
2022-08-26T03:57:21.784Z,20.20
2022-08-26T04:00:12.053Z,20.10
2022-08-26T04:02:59.993Z,20.00
2022-08-26T04:05:52.318Z,20.00
2022-08-26T04:08:40.605Z,20.00
2022-08-26T04:11:32.147Z,20.00
2022-08-26T04:14:24.613Z,20.00
2022-08-26T04:17:12.451Z,20.00
2022-08-26T04:20:00.298Z,20.10
2022-08-26T04:22:48.368Z,20.10
2022-08-26T04:25:36.326Z,20.10
2022-08-26T04:28:28.445Z,20.10
2022-08-26T04:31:18.608Z,20.20
2022-08-26T04:34:07.124Z,20.20
2022-08-26T04:36:56.035Z,20.10
2022-08-26T04:39:43.978Z,20.20
2022-08-26T04:42:33.349Z,20.20
2022-08-26T04:45:22.569Z,20.20
2022-08-26T04:48:12.295Z,20.20
2022-08-26T04:51:05.251Z,20.10
2022-08-26T04:53:53.568Z,20.10
2022-08-26T04:56:42.700Z,20.00
2022-08-26T04:59:31.057Z,20.00
2022-08-26T05:02:19.362Z,19.90
2022-08-26T05:05:09.201Z,19.80
2022-08-26T05:07:57.022Z,19.80
2022-08-26T05:10:46.168Z,19.80
2022-08-26T05:13:34.952Z,19.80
2022-08-26T05:16:22.879Z,19.90
2022-08-26T05:19:11.324Z,19.90
2022-08-26T05:22:00.876Z,19.90
2022-08-26T05:24:49.333Z,20.00
2022-08-26T05:27:37.210Z,20.10
2022-08-26T05:30:25.045Z,20.20
2022-08-26T05:33:13.266Z,20.30
2022-08-26T05:36:07.561Z,20.30
2022-08-26T05:38:58.805Z,20.40
2022-08-26T05:41:46.728Z,20.50
2022-08-26T05:44:55.660Z,20.60
2022-08-26T05:47:42.699Z,20.70
2022-08-26T05:50:30.556Z,20.90
2022-08-26T05:53:19.426Z,21.00
2022-08-26T05:56:10.216Z,21.10
2022-08-26T05:58:58.657Z,21.20
2022-08-26T06:01:47.775Z,21.30
2022-08-26T06:04:36.312Z,21.40
2022-08-26T06:07:44.321Z,21.50
2022-08-26T06:10:33.348Z,21.60
2022-08-26T06:13:25.550Z,21.70
2022-08-26T06:16:16.073Z,21.80
2022-08-26T06:19:10.900Z,21.90
2022-08-26T06:22:23.305Z,22.00
2022-08-26T06:25:29.388Z,22.10
2022-08-26T06:28:17.568Z,22.10
2022-08-26T06:31:07.452Z,22.10
2022-08-26T06:33:56.065Z,22.10
2022-08-26T06:36:44.741Z,22.10
2022-08-26T06:39:33.890Z,22.20
2022-08-26T06:42:22.437Z,22.30
2022-08-26T06:45:10.604Z,22.30
2022-08-26T06:48:00.412Z,22.40
2022-08-26T06:50:49.952Z,22.50
2022-08-26T06:53:38.155Z,22.60
2022-08-26T06:56:30.592Z,22.70
2022-08-26T06:59:18.510Z,22.80
2022-08-26T07:02:06.750Z,22.80
2022-08-26T07:04:57.447Z,22.90
2022-08-26T07:07:45.293Z,23.00
2022-08-26T07:10:33.176Z,23.10
2022-08-26T07:13:29.912Z,23.20
2022-08-26T07:16:18.913Z,23.30
2022-08-26T07:19:10.814Z,23.50
2022-08-26T07:22:03.352Z,23.60
2022-08-26T07:24:51.653Z,23.70
2022-08-26T07:27:39.852Z,23.80
2022-08-26T07:30:27.683Z,23.90
2022-08-26T07:33:15.835Z,24.00
2022-08-26T07:36:04.199Z,24.10
2022-08-26T07:38:53.744Z,24.20
2022-08-26T07:41:41.693Z,24.40
2022-08-26T07:44:31.205Z,24.40
2022-08-26T07:47:25.836Z,24.50
2022-08-26T07:50:14.285Z,24.50
2022-08-26T07:53:03.530Z,24.60
2022-08-26T07:55:53.629Z,24.70
2022-08-26T07:58:41.483Z,24.80
2022-08-26T08:01:33.124Z,24.90
2022-08-26T08:04:26.120Z,25.00
2022-08-26T08:07:14.375Z,25.10
2022-08-26T08:10:05.539Z,25.20
2022-08-26T08:12:59.143Z,25.40
2022-08-26T08:15:47.069Z,25.50
2022-08-26T08:18:38.485Z,25.60
2022-08-26T08:21:30.362Z,25.70
2022-08-26T08:24:18.247Z,25.70
2022-08-26T08:27:06.571Z,25.80
2022-08-26T08:29:55.853Z,25.90
2022-08-26T08:32:44.316Z,25.90
2022-08-26T08:35:34.434Z,26.00
2022-08-26T08:38:22.324Z,26.10
2022-08-26T08:41:19.222Z,26.20
2022-08-26T08:44:10.666Z,26.30
2022-08-26T08:47:01.891Z,26.40
2022-08-26T08:49:49.840Z,26.60
2022-08-26T08:52:38.237Z,26.80
2022-08-26T08:55:28.613Z,26.90
2022-08-26T08:58:19.182Z,27.00
2022-08-26T09:01:09.960Z,27.10
2022-08-26T09:04:10.421Z,27.30
2022-08-26T09:07:00.325Z,27.30
2022-08-26T09:09:50.066Z,27.30
2022-08-26T09:12:38.928Z,27.40
2022-08-26T09:15:30.399Z,27.50
2022-08-26T09:18:25.212Z,27.70
2022-08-26T09:21:15.548Z,27.80
2022-08-26T09:24:06.047Z,27.90
2022-08-26T09:26:56.575Z,27.90
2022-08-26T09:29:45.481Z,28.00
2022-08-26T09:32:38.380Z,28.10
2022-08-26T09:35:28.507Z,28.10
2022-08-26T09:38:26.595Z,28.10
2022-08-26T09:41:25.878Z,28.10
2022-08-26T09:44:18.018Z,28.20
2022-08-26T09:47:07.588Z,28.20
2022-08-26T09:50:00.855Z,28.30
2022-08-26T09:53:04.014Z,28.40
2022-08-26T09:56:17.179Z,28.40
2022-08-26T09:59:06.581Z,28.50
2022-08-26T10:02:16.562Z,28.50
2022-08-26T10:05:09.692Z,28.60
2022-08-26T10:07:58.125Z,28.80
2022-08-26T10:10:47.920Z,28.90
2022-08-26T10:13:44.317Z,29.00
2022-08-26T10:16:34.793Z,29.00
2022-08-26T10:19:25.292Z,29.10
2022-08-26T10:22:28.719Z,29.10
2022-08-26T10:25:21.169Z,29.00
2022-08-26T10:28:11.732Z,28.90
2022-08-26T10:31:04.104Z,28.80
2022-08-26T10:33:55.449Z,28.80
2022-08-26T10:40:01.073Z,28.70
2022-08-26T10:42:53.136Z,28.60
2022-08-26T10:45:44.539Z,28.50
2022-08-26T10:48:36.101Z,28.50
2022-08-26T10:51:26.365Z,28.40
2022-08-26T10:54:18.818Z,28.30
2022-08-26T10:57:14.258Z,28.20
2022-08-26T11:00:27.534Z,28.10
2022-08-26T11:03:25.627Z,28.00
2022-08-26T11:06:21.895Z,27.70
2022-08-26T11:09:10.015Z,27.60
2022-08-26T11:11:58.457Z,27.50
2022-08-26T11:14:58.765Z,27.50
2022-08-26T11:17:58.200Z,27.50
2022-08-26T11:20:48.164Z,27.50
2022-08-26T11:23:50.796Z,27.50
2022-08-26T11:26:56.085Z,27.50
2022-08-26T11:29:59.265Z,27.50
2022-08-26T11:32:48.958Z,27.50
2022-08-26T11:35:49.198Z,27.40
2022-08-26T11:38:42.285Z,27.20
2022-08-26T11:41:32.020Z,27.20
2022-08-26T11:44:21.037Z,27.00
2022-08-26T11:47:11.708Z,27.00
2022-08-26T11:50:13.642Z,26.90
2022-08-26T11:53:06.273Z,26.90
2022-08-26T11:55:56.052Z,26.90
2022-08-26T11:58:46.302Z,26.60
2022-08-26T12:01:35.846Z,26.70
2022-08-26T12:04:27.877Z,26.70
2022-08-26T12:07:16.465Z,26.60
2022-08-26T12:10:06.843Z,26.60
2022-08-26T12:12:55.912Z,26.70
2022-08-26T12:15:52.536Z,26.70
2022-08-26T12:18:44.957Z,26.70
2022-08-26T12:21:34.806Z,26.70
2022-08-26T12:24:22.873Z,26.60
2022-08-26T12:27:18.591Z,26.60
2022-08-26T12:30:09.671Z,26.60
2022-08-26T12:33:22.152Z,26.60
2022-08-26T12:36:11.089Z,26.70
2022-08-26T12:39:07.901Z,26.80
2022-08-26T12:41:56.616Z,26.80
2022-08-26T12:44:54.185Z,26.80
2022-08-26T12:47:44.160Z,26.90
2022-08-26T12:50:34.441Z,26.90
2022-08-26T12:53:23.685Z,26.90
2022-08-26T12:56:22.571Z,26.90
2022-08-26T12:59:21.809Z,26.90
2022-08-26T13:02:09.735Z,27.00
2022-08-26T13:05:00.898Z,27.10
2022-08-26T13:08:03.789Z,27.10
2022-08-26T13:11:03.045Z,27.20
2022-08-26T13:13:52.476Z,27.20
2022-08-26T13:16:42.230Z,27.20
2022-08-26T13:19:31.319Z,27.20
2022-08-26T13:22:22.949Z,27.20
2022-08-26T13:25:10.936Z,27.20
2022-08-26T13:28:00.111Z,27.10
2022-08-26T13:30:49.668Z,27.20
2022-08-26T13:33:37.650Z,27.20
2022-08-26T13:36:27.018Z,27.20
2022-08-26T13:39:14.974Z,27.20
2022-08-26T13:42:02.802Z,27.20
2022-08-26T13:44:57.807Z,27.20
2022-08-26T13:47:48.716Z,27.20
2022-08-26T13:50:36.590Z,27.30
2022-08-26T13:53:24.543Z,27.30
2022-08-26T13:56:12.473Z,27.30
2022-08-26T13:59:01.205Z,27.40
2022-08-26T14:01:50.590Z,27.50
2022-08-26T14:04:38.538Z,27.60
2022-08-26T14:07:26.672Z,27.60
2022-08-26T14:10:14.590Z,27.60
2022-08-26T14:13:02.514Z,27.60
2022-08-26T14:15:52.274Z,27.60
2022-08-26T14:18:45.198Z,27.60
2022-08-26T14:21:36.500Z,27.50
2022-08-26T14:24:24.367Z,27.50
2022-08-26T14:27:12.278Z,27.50
2022-08-26T14:30:00.494Z,27.40
2022-08-26T14:32:50.346Z,27.50
2022-08-26T14:35:40.111Z,27.50
2022-08-26T14:38:35.750Z,27.40
2022-08-26T14:41:25.533Z,27.50
2022-08-26T14:44:14.494Z,27.40
2022-08-26T14:47:03.409Z,27.50
2022-08-26T14:49:51.410Z,27.70
2022-08-26T14:52:54.772Z,27.70
2022-08-26T14:55:42.908Z,27.60
2022-08-26T14:58:34.843Z,27.70
2022-08-26T15:01:23.096Z,27.80
2022-08-26T15:04:11.615Z,27.80
2022-08-26T15:07:00.162Z,27.50
2022-08-26T15:09:49.890Z,27.30
2022-08-26T15:12:38.018Z,27.30
2022-08-26T15:15:25.894Z,27.30
2022-08-26T15:18:13.728Z,27.20
2022-08-26T15:21:02.916Z,27.10
2022-08-26T15:23:51.539Z,27.10
2022-08-26T15:26:40.900Z,26.90
2022-08-26T15:29:28.780Z,26.60
2022-08-26T15:32:16.758Z,26.40
2022-08-26T15:35:08.821Z,26.20
2022-08-26T15:37:57.011Z,25.80
2022-08-26T15:40:44.909Z,25.50
2022-08-26T15:43:34.141Z,25.30
2022-08-26T15:46:22.053Z,25.10
2022-08-26T15:49:18.549Z,25.10
2022-08-26T15:52:06.742Z,25.10
2022-08-26T15:54:55.036Z,25.00
2022-08-26T15:57:43.226Z,24.80
2022-08-26T16:00:34.122Z,24.60
2022-08-26T16:03:22.294Z,24.50
2022-08-26T16:06:13.842Z,24.40
2022-08-26T16:09:01.986Z,24.30
2022-08-26T16:11:49.868Z,24.30
2022-08-26T16:14:37.704Z,24.20
2022-08-26T16:17:26.891Z,24.10
2022-08-26T16:20:14.756Z,24.20
2022-08-26T16:23:03.299Z,24.10
2022-08-26T16:25:51.249Z,24.00
2022-08-26T16:28:39.342Z,24.10
2022-08-26T16:31:27.289Z,24.20
2022-08-26T16:34:16.503Z,24.00
2022-08-26T16:37:04.389Z,24.10
2022-08-26T16:39:52.290Z,24.00
2022-08-26T16:42:40.132Z,24.00
2022-08-26T16:45:27.965Z,23.90
2022-08-26T16:48:15.998Z,23.80
2022-08-26T16:51:05.247Z,23.80
2022-08-26T16:53:53.496Z,23.80
2022-08-26T16:56:41.417Z,23.70
2022-08-26T16:59:29.306Z,23.70
2022-08-26T17:02:17.152Z,23.70
2022-08-26T17:05:05.531Z,23.70
2022-08-26T17:07:55.464Z,23.60
2022-08-26T17:13:37.329Z,23.50
2022-08-26T17:16:27.043Z,23.50
2022-08-26T17:19:15.559Z,23.40
2022-08-26T17:22:05.626Z,23.40
2022-08-26T17:24:55.392Z,23.40
2022-08-26T17:27:43.743Z,23.40
2022-08-26T17:30:31.625Z,23.20
2022-08-26T17:33:22.158Z,23.20
2022-08-26T17:36:13.036Z,23.20
2022-08-26T17:39:01.084Z,23.20
2022-08-26T17:41:50.429Z,23.30
2022-08-26T17:44:38.377Z,23.20
2022-08-26T17:47:26.329Z,23.20
2022-08-26T17:50:16.115Z,23.20
2022-08-26T17:53:03.923Z,23.10
2022-08-26T17:55:52.327Z,23.20
2022-08-26T17:58:51.148Z,23.10
2022-08-26T18:01:39.936Z,23.10
2022-08-26T18:04:28.018Z,23.10
2022-08-26T18:07:16.515Z,23.10
2022-08-26T18:10:05.209Z,23.10
2022-08-26T18:12:53.694Z,23.00
2022-08-26T18:15:43.868Z,23.00
2022-08-26T18:18:31.855Z,23.00
2022-08-26T18:21:21.195Z,23.00
2022-08-26T18:24:13.354Z,22.90
2022-08-26T18:27:02.011Z,22.80
2022-08-26T18:29:50.484Z,22.70
2022-08-26T18:32:39.653Z,22.60
2022-08-26T18:35:29.923Z,22.70
2022-08-26T18:38:18.147Z,22.60
2022-08-26T18:41:07.854Z,22.60
2022-08-26T18:43:56.110Z,22.60
2022-08-26T18:46:44.883Z,22.50
2022-08-26T18:49:34.048Z,22.50
2022-08-26T18:52:21.889Z,22.40
2022-08-26T18:55:11.727Z,22.40
2022-08-26T18:57:59.846Z,22.40
2022-08-26T19:00:47.944Z,22.30
2022-08-26T19:03:35.783Z,22.20
2022-08-26T19:06:25.329Z,22.20
2022-08-26T19:09:14.572Z,22.10
2022-08-26T19:12:03.253Z,22.10
2022-08-26T19:14:51.148Z,22.10
2022-08-26T19:17:39.042Z,22.10
2022-08-26T19:20:26.872Z,22.10
2022-08-26T19:23:30.775Z,22.00
2022-08-26T19:26:19.793Z,22.00
2022-08-26T19:29:07.745Z,22.00
2022-08-26T19:31:56.462Z,21.90
2022-08-26T19:34:44.603Z,21.90
2022-08-26T19:37:32.561Z,21.90
2022-08-26T19:40:22.136Z,21.90
2022-08-26T19:43:10.627Z,21.90
2022-08-26T19:45:59.908Z,21.80
2022-08-26T19:48:47.982Z,21.80
2022-08-26T19:51:36.602Z,21.80
2022-08-26T19:54:25.259Z,21.80
2022-08-26T19:57:14.501Z,21.80
2022-08-26T20:00:02.812Z,21.90
2022-08-26T20:02:51.069Z,21.60
2022-08-26T20:05:39.533Z,21.60
2022-08-26T20:08:28.567Z,21.50
2022-08-26T20:11:18.693Z,21.60
2022-08-26T20:14:07.884Z,21.50
2022-08-26T20:16:55.820Z,21.40
2022-08-26T20:20:01.313Z,21.40
2022-08-26T20:22:49.112Z,21.40
2022-08-26T20:25:37.355Z,21.30
2022-08-26T20:28:25.256Z,21.30
2022-08-26T20:31:14.541Z,21.30
2022-08-26T20:34:02.505Z,21.30
2022-08-26T20:36:50.894Z,21.20
2022-08-26T20:39:38.829Z,21.20
2022-08-26T20:42:27.845Z,21.20
2022-08-26T20:45:15.842Z,21.10
2022-08-26T20:48:05.259Z,21.10
2022-08-26T20:50:57.027Z,21.10
2022-08-26T20:53:45.336Z,21.20
2022-08-26T20:56:33.447Z,21.20
2022-08-26T20:59:21.465Z,21.20
2022-08-26T21:02:10.081Z,21.20
2022-08-26T21:04:59.378Z,21.20
2022-08-26T21:07:47.243Z,21.20
2022-08-26T21:10:35.727Z,21.10
2022-08-26T21:13:23.744Z,21.20
2022-08-26T21:16:12.057Z,21.10
2022-08-26T21:19:00.539Z,21.10
2022-08-26T21:21:50.152Z,21.10
2022-08-26T21:24:37.992Z,21.10
2022-08-26T21:27:26.615Z,21.10
2022-08-26T21:30:16.585Z,21.10
2022-08-26T21:33:04.557Z,21.20
2022-08-26T21:35:53.144Z,21.10
2022-08-26T21:38:42.539Z,21.20
2022-08-26T21:41:31.098Z,21.10
2022-08-26T21:44:19.252Z,21.10
2022-08-26T21:47:07.435Z,21.10
2022-08-26T21:49:55.577Z,21.00
2022-08-26T21:52:43.883Z,21.00
2022-08-26T21:55:35.637Z,21.00
2022-08-26T21:58:23.750Z,21.00
2022-08-26T22:01:12.362Z,21.00
2022-08-26T22:04:00.504Z,20.90
2022-08-26T22:06:49.520Z,20.90
2022-08-26T22:09:38.072Z,20.90
2022-08-26T22:12:28.700Z,20.90
2022-08-26T22:15:16.961Z,20.90
2022-08-26T22:18:05.193Z,20.90
2022-08-26T22:20:54.057Z,20.80
2022-08-26T22:23:41.912Z,20.80
2022-08-26T22:26:30.862Z,20.80
2022-08-26T22:29:20.124Z,20.70
2022-08-26T22:32:08.091Z,20.70
2022-08-26T22:34:55.984Z,20.70
2022-08-26T22:37:43.922Z,20.70
2022-08-26T22:40:32.048Z,20.70
2022-08-26T22:43:20.270Z,20.70
2022-08-26T22:46:10.344Z,20.70
2022-08-26T22:48:58.280Z,20.70
2022-08-26T22:51:46.778Z,20.70
2022-08-26T22:54:34.613Z,20.70
2022-08-26T22:57:22.552Z,20.70
2022-08-26T23:00:13.484Z,20.60
2022-08-26T23:03:04.238Z,20.60
2022-08-26T23:05:52.655Z,20.60
2022-08-26T23:08:41.942Z,20.60
2022-08-26T23:11:29.902Z,20.60
2022-08-26T23:14:18.162Z,20.60
2022-08-26T23:17:06.140Z,20.50
2022-08-26T23:19:55.380Z,20.50
2022-08-26T23:22:43.514Z,20.50
2022-08-26T23:25:32.407Z,20.40
2022-08-26T23:28:20.573Z,20.40
2022-08-26T23:31:08.781Z,20.40
2022-08-26T23:34:14.401Z,20.40
2022-08-26T23:37:06.167Z,20.40
2022-08-26T23:39:54.651Z,20.50
2022-08-26T23:42:42.496Z,20.40
2022-08-26T23:45:30.821Z,20.40
2022-08-26T23:48:18.710Z,20.40
2022-08-26T23:51:25.416Z,20.40
2022-08-26T23:54:14.634Z,20.40
2022-08-26T23:57:02.565Z,20.30
2022-08-26T23:59:50.464Z,20.30
